Time;durP1;ratioP1;P1;durP2;ratioP2;P2;SDS_P1;SDS_P2;PMS_P1;PMS_P2;Temp;Humidity;BMP_temperature;BMP_pressure;BME280_temperature;BME280_humidity;BME280_pressure;Samples;Min_cycle;Max_cycle;Signal;HPM_P1;HPM_P2
2023/12/18 00:01:29;;;;;;;2.35;2.15;;;7.30;99.90;;;;;;5058129;28;20048;-72
2023/12/18 00:03:54;;;;;;;3.75;3.45;;;7.30;99.90;;;;;;5057751;28;20049;-72
2023/12/18 00:06:20;;;;;;;2.83;2.58;;;7.40;99.90;;;;;;5054493;28;20509;-72
2023/12/18 00:08:46;;;;;;;1.63;1.63;;;7.30;99.90;;;;;;5068303;28;20456;-72
2023/12/18 00:11:11;;;;;;;2.35;2.22;;;7.40;99.90;;;;;;5064487;28;20123;-72
2023/12/18 00:13:37;;;;;;;3.13;2.20;;;7.40;99.90;;;;;;5065900;28;20056;-72
2023/12/18 00:16:03;;;;;;;2.60;1.70;;;7.40;99.90;;;;;;5053369;28;20060;-73
2023/12/18 00:18:29;;;;;;;2.05;1.58;;;7.40;99.90;;;;;;5052686;28;20048;-72
2023/12/18 00:20:55;;;;;;;1.95;1.75;;;7.40;99.90;;;;;;5059423;28;20040;-72
2023/12/18 00:23:20;;;;;;;1.88;1.77;;;7.40;99.90;;;;;;5063662;28;20109;-72
2023/12/18 00:25:46;;;;;;;1.50;1.42;;;7.40;99.90;;;;;;5058941;28;20107;-72
2023/12/18 00:28:11;;;;;;;3.15;2.60;;;7.40;99.90;;;;;;5061289;28;20125;-72
2023/12/18 00:30:37;;;;;;;2.13;1.95;;;7.40;99.90;;;;;;5050946;28;20670;-72
2023/12/18 00:33:03;;;;;;;1.05;1.05;;;7.30;99.90;;;;;;5060139;28;20562;-72
2023/12/18 00:35:31;;;;;;;6.22;1.70;;;7.40;99.90;;;;;;5052949;28;20131;-72
2023/12/18 00:37:57;;;;;;;3.60;2.65;;;7.30;99.90;;;;;;5053802;28;20120;-72
2023/12/18 00:40:22;;;;;;;2.63;1.70;;;7.40;99.90;;;;;;5055623;28;20049;-72
2023/12/18 00:42:48;;;;;;;4.25;3.78;;;7.40;99.90;;;;;;5054787;28;20047;-72
2023/12/18 00:45:17;;;;;;;9.05;3.38;;;7.40;99.90;;;;;;5059921;28;20049;-72
2023/12/18 00:47:42;;;;;;;2.50;2.38;;;7.40;99.90;;;;;;5058196;28;20044;-73
2023/12/18 00:50:09;;;;;;;2.35;2.15;;;7.40;99.90;;;;;;5057150;28;20102;-72
2023/12/18 00:52:36;;;;;;;3.50;1.92;;;7.40;99.90;;;;;;5055221;28;20039;-72
2023/12/18 00:55:02;;;;;;;1.65;1.55;;;7.40;99.90;;;;;;5058212;28;20080;-72
2023/12/18 00:57:28;;;;;;;1.92;1.45;;;7.40;99.90;;;;;;5051199;28;20107;-72
2023/12/18 00:59:53;;;;;;;1.70;1.60;;;7.40;99.90;;;;;;5057344;28;20048;-72
2023/12/18 01:02:19;;;;;;;4.28;2.72;;;7.40;99.90;;;;;;5056355;28;20056;-72
2023/12/18 01:04:45;;;;;;;3.08;2.85;;;7.40;99.90;;;;;;5060704;28;20049;-73
2023/12/18 01:07:10;;;;;;;5.57;2.45;;;7.40;99.90;;;;;;5055064;28;20044;-72
2023/12/18 01:09:36;;;;;;;3.05;2.85;;;7.40;99.90;;;;;;5053853;28;20040;-72
2023/12/18 01:12:01;;;;;;;4.32;2.83;;;7.40;99.90;;;;;;5057409;28;20103;-73
2023/12/18 01:14:27;;;;;;;2.40;1.92;;;7.40;99.90;;;;;;5051420;28;20033;-72
2023/12/18 01:16:54;;;;;;;5.88;3.42;;;7.50;99.90;;;;;;5057081;28;20045;-72
2023/12/18 01:19:20;;;;;;;3.10;2.15;;;7.50;99.90;;;;;;5059582;28;20046;-73
2023/12/18 01:21:46;;;;;;;3.88;2.13;;;7.50;99.90;;;;;;5065572;28;20080;-73
2023/12/18 01:24:11;;;;;;;1.08;1.08;;;7.50;99.90;;;;;;5062379;28;20087;-72
2023/12/18 01:26:37;;;;;;;2.60;2.38;;;7.50;99.90;;;;;;5063483;28;20060;-72
2023/12/18 01:29:04;;;;;;;1.88;1.77;;;7.50;99.90;;;;;;5040172;28;20139;-72
2023/12/18 01:31:29;;;;;;;2.58;2.38;;;7.50;99.90;;;;;;5064105;28;20080;-73
2023/12/18 01:33:58;;;;;;;2.40;2.20;;;7.50;99.90;;;;;;5062953;28;20083;-73
2023/12/18 01:36:23;;;;;;;3.17;2.65;;;7.60;99.90;;;;;;5041065;28;20486;-73
2023/12/18 01:38:49;;;;;;;1.95;1.85;;;7.60;99.90;;;;;;5055785;28;20071;-73
2023/12/18 01:41:14;;;;;;;1.40;1.23;;;7.60;99.90;;;;;;5058763;28;20433;-72
2023/12/18 01:43:40;;;;;;;2.95;1.92;;;7.60;99.90;;;;;;5050854;28;20044;-72
2023/12/18 01:46:06;;;;;;;2.60;2.03;;;7.60;99.90;;;;;;5066278;28;20076;-73
2023/12/18 01:48:33;;;;;;;2.80;2.60;;;7.60;99.90;;;;;;5057337;28;20045;-73
2023/12/18 01:51:00;;;;;;;2.97;1.77;;;7.60;99.90;;;;;;5052248;28;20281;-73
2023/12/18 01:53:38;;;;;;;1.63;1.48;;;7.60;99.90;;;;;;5056022;28;20044;-72
2023/12/18 01:56:04;;;;;;;2.17;1.77;;;7.60;99.90;;;;;;5053088;28;20067;-72
2023/12/18 01:58:33;;;;;;;1.58;1.48;;;7.60;99.90;;;;;;5058548;28;20464;-72
2023/12/18 02:00:59;;;;;;;3.10;2.90;;;7.60;99.90;;;;;;5067370;28;20049;-72
2023/12/18 02:03:29;;;;;;;3.00;1.55;;;7.60;99.90;;;;;;5060600;28;20045;-71
2023/12/18 02:05:58;;;;;;;1.48;0.70;;;7.60;99.90;;;;;;5060900;28;20127;-72
2023/12/18 02:08:25;;;;;;;2.65;2.50;;;7.60;99.90;;;;;;5060545;28;20049;-72
2023/12/18 02:10:51;;;;;;;3.10;2.38;;;7.70;99.90;;;;;;5055138;28;20096;-72
2023/12/18 02:13:17;;;;;;;1.65;1.00;;;7.70;99.90;;;;;;5057136;28;20045;-72
2023/12/18 02:15:42;;;;;;;0.80;0.80;;;7.70;99.90;;;;;;5049649;28;20061;-72
2023/12/18 02:18:08;;;;;;;1.48;1.38;;;7.70;99.90;;;;;;5062683;28;20544;-72
2023/12/18 02:20:34;;;;;;;1.77;1.67;;;7.70;99.90;;;;;;5054078;28;20041;-72
2023/12/18 02:22:59;;;;;;;1.35;1.02;;;7.70;99.90;;;;;;5052847;28;20072;-72
2023/12/18 02:25:25;;;;;;;13.50;3.55;;;7.70;99.90;;;;;;5055761;28;20485;-72
2023/12/18 02:27:51;;;;;;;2.75;1.55;;;7.70;99.90;;;;;;5049918;28;20094;-73
2023/12/18 02:30:22;;;;;;;3.83;3.53;;;7.70;99.90;;;;;;5061367;28;20052;-72
2023/12/18 02:32:48;;;;;;;8.30;2.80;;;7.70;99.90;;;;;;5051836;28;20053;-72
2023/12/18 02:35:14;;;;;;;3.20;2.90;;;7.70;99.90;;;;;;5058963;28;20041;-73
2023/12/18 02:37:39;;;;;;;2.55;2.30;;;7.70;99.90;;;;;;5052721;28;20049;-73
2023/12/18 02:40:05;;;;;;;2.20;1.70;;;7.70;99.90;;;;;;5029218;28;20033;-72
2023/12/18 02:42:31;;;;;;;2.45;2.28;;;7.70;99.90;;;;;;5041092;28;20055;-73
2023/12/18 02:44:57;;;;;;;0.93;0.93;;;7.70;99.90;;;;;;5053504;28;20033;-72
2023/12/18 02:47:23;;;;;;;3.03;1.92;;;7.70;99.90;;;;;;5055296;28;20049;-73
2023/12/18 02:49:49;;;;;;;2.50;2.28;;;7.80;99.90;;;;;;5049905;28;20047;-72
2023/12/18 02:52:14;;;;;;;2.33;2.20;;;7.70;99.90;;;;;;5054354;28;20048;-73
2023/12/18 02:54:41;;;;;;;2.58;2.38;;;7.80;99.90;;;;;;5059128;28;20052;-73
2023/12/18 02:57:06;;;;;;;4.50;3.85;;;7.70;99.90;;;;;;5063692;28;20032;-72
2023/12/18 02:59:32;;;;;;;1.90;1.80;;;7.80;99.90;;;;;;5059062;28;20071;-73
2023/12/18 03:01:57;;;;;;;3.35;2.40;;;7.80;99.90;;;;;;5055806;28;20072;-73
2023/12/18 03:04:23;;;;;;;1.27;1.23;;;7.80;99.90;;;;;;5058113;28;20075;-72
2023/12/18 03:06:49;;;;;;;3.13;1.92;;;7.80;99.90;;;;;;5050738;28;20053;-72
2023/12/18 03:09:15;;;;;;;4.88;1.98;;;7.80;99.90;;;;;;5051929;28;20052;-73
2023/12/18 03:11:41;;;;;;;1.38;1.27;;;7.80;99.90;;;;;;5052781;28;20056;-72
2023/12/18 03:14:10;;;;;;;1.70;1.60;;;7.80;99.90;;;;;;5055267;28;20040;-72
2023/12/18 03:16:39;;;;;;;1.50;1.40;;;7.80;99.90;;;;;;5055668;28;20044;-72
2023/12/18 03:19:06;;;;;;;1.27;1.20;;;7.80;99.90;;;;;;5051226;28;20048;-72
2023/12/18 03:21:32;;;;;;;3.00;2.25;;;7.80;99.90;;;;;;5052587;28;20762;-73
2023/12/18 03:23:58;;;;;;;2.45;1.60;;;7.80;99.90;;;;;;5057698;28;20052;-73
2023/12/18 03:26:23;;;;;;;1.48;1.38;;;7.80;99.90;;;;;;5058523;28;20053;-72
2023/12/18 03:28:49;;;;;;;3.15;2.30;;;7.80;99.90;;;;;;5054453;28;20053;-72
2023/12/18 03:31:15;;;;;;;0.80;0.80;;;7.80;99.90;;;;;;5059902;28;20049;-72
2023/12/18 03:33:42;;;;;;;4.15;2.88;;;7.80;99.90;;;;;;5062724;28;20067;-72
2023/12/18 03:36:08;;;;;;;4.97;3.03;;;7.80;99.90;;;;;;5052886;28;20041;-73
2023/12/18 03:38:34;;;;;;;2.92;2.58;;;7.80;99.90;;;;;;5052963;28;20494;-72
2023/12/18 03:41:00;;;;;;;2.22;2.05;;;7.90;99.90;;;;;;5056301;28;20122;-72
2023/12/18 03:43:26;;;;;;;1.42;1.33;;;7.80;99.90;;;;;;5058197;28;20052;-72
2023/12/18 03:45:52;;;;;;;0.60;0.60;;;7.90;99.90;;;;;;5055678;28;20498;-72
2023/12/18 03:48:19;;;;;;;1.77;1.58;;;7.80;99.90;;;;;;5057255;28;20522;-72
2023/12/18 03:50:45;;;;;;;1.83;1.73;;;7.80;99.90;;;;;;5066399;28;20493;-73
2023/12/18 03:53:11;;;;;;;2.15;2.03;;;7.80;99.90;;;;;;5053589;28;20532;-72
2023/12/18 03:55:38;;;;;;;2.17;1.77;;;7.80;99.90;;;;;;5067520;28;20040;-72
2023/12/18 03:58:04;;;;;;;1.55;1.55;;;7.80;99.90;;;;;;5054511;28;20048;-72
2023/12/18 04:00:30;;;;;;;5.03;3.35;;;7.70;99.90;;;;;;5063577;28;20707;-72
2023/12/18 04:02:57;;;;;;;4.00;2.83;;;7.70;99.90;;;;;;5063636;28;20048;-72
2023/12/18 04:05:24;;;;;;;2.75;2.55;;;7.70;99.90;;;;;;5055700;28;20127;-72
2023/12/18 04:07:50;;;;;;;2.15;2.05;;;7.70;99.90;;;;;;5050071;28;20425;-73
2023/12/18 04:10:16;;;;;;;2.53;2.38;;;7.60;99.90;;;;;;5040951;28;20051;-72
2023/12/18 04:12:42;;;;;;;1.92;1.83;;;7.60;99.90;;;;;;5059194;28;20048;-73
2023/12/18 04:15:09;;;;;;;1.88;1.65;;;7.60;99.90;;;;;;5056774;28;20102;-72
2023/12/18 04:17:34;;;;;;;2.80;2.60;;;7.60;99.90;;;;;;5051807;28;20494;-72
2023/12/18 04:20:00;;;;;;;3.67;2.15;;;7.60;99.90;;;;;;5058386;28;20043;-72
2023/12/18 04:22:25;;;;;;;1.00;1.00;;;7.60;99.90;;;;;;5061475;28;20594;-72
2023/12/18 04:24:51;;;;;;;1.92;1.63;;;7.60;99.90;;;;;;5063142;28;20048;-72
2023/12/18 04:27:16;;;;;;;2.05;1.85;;;7.50;99.90;;;;;;5038968;28;20045;-72
2023/12/18 04:29:42;;;;;;;4.85;2.33;;;7.50;99.90;;;;;;5061880;28;20045;-72
2023/12/18 04:32:08;;;;;;;3.47;3.15;;;7.60;99.90;;;;;;5050377;28;20045;-72
2023/12/18 04:34:39;;;;;;;2.92;2.42;;;7.60;99.90;;;;;;5056177;28;20044;-72
2023/12/18 04:37:05;;;;;;;2.00;1.83;;;7.50;99.90;;;;;;5054862;28;20382;-73
2023/12/18 04:39:32;;;;;;;3.35;2.30;;;7.50;99.90;;;;;;5057148;28;20163;-72
2023/12/18 04:41:57;;;;;;;1.77;1.67;;;7.50;99.90;;;;;;5053690;28;20226;-72
2023/12/18 04:44:23;;;;;;;3.78;2.53;;;7.50;99.90;;;;;;5060354;28;20520;-72
2023/12/18 04:46:49;;;;;;;3.80;2.17;;;7.50;99.90;;;;;;5063471;28;20230;-72
2023/12/18 04:49:14;;;;;;;4.25;2.17;;;7.50;99.90;;;;;;5061959;28;20055;-73
2023/12/18 04:51:40;;;;;;;2.63;2.38;;;7.50;99.90;;;;;;5054189;28;20045;-72
2023/12/18 04:54:06;;;;;;;2.40;2.20;;;7.50;99.90;;;;;;5052466;28;20051;-73
2023/12/18 04:56:31;;;;;;;4.45;3.15;;;7.50;99.90;;;;;;5057399;28;20127;-72
2023/12/18 04:58:57;;;;;;;3.67;2.30;;;7.50;99.90;;;;;;5065673;28;20101;-73
2023/12/18 05:01:22;;;;;;;3.35;2.47;;;7.50;99.90;;;;;;5064735;28;20048;-72
2023/12/18 05:03:48;;;;;;;2.78;2.58;;;7.50;99.90;;;;;;5058253;28;20044;-73
2023/12/18 05:06:22;;;;;;;3.20;2.35;;;7.50;99.90;;;;;;5053368;28;20059;-73
2023/12/18 05:08:49;;;;;;;3.45;2.45;;;7.50;99.90;;;;;;5043713;28;20063;-73
2023/12/18 05:11:19;;;;;;;2.05;1.95;;;7.50;99.90;;;;;;5056100;28;20052;-73
2023/12/18 05:13:45;;;;;;;4.10;2.05;;;7.50;99.90;;;;;;5054146;28;20060;-72
2023/12/18 05:16:11;;;;;;;1.70;1.60;;;7.50;99.90;;;;;;5060305;28;20593;-73
2023/12/18 05:18:37;;;;;;;2.50;2.20;;;7.50;99.90;;;;;;5056218;28;20159;-73
2023/12/18 05:21:06;;;;;;;2.55;2.35;;;7.50;99.90;;;;;;5056584;28;20393;-72
2023/12/18 05:23:31;;;;;;;4.70;3.25;;;7.50;99.90;;;;;;5054020;28;20048;-73
2023/12/18 05:25:57;;;;;;;2.40;2.20;;;7.50;99.90;;;;;;5056624;28;20376;-72
2023/12/18 05:28:23;;;;;;;2.83;2.30;;;7.50;99.90;;;;;;5057051;28;20071;-72
2023/12/18 05:30:49;;;;;;;3.35;2.05;;;7.50;99.90;;;;;;5052123;28;20044;-72
2023/12/18 05:33:15;;;;;;;2.90;2.70;;;7.50;99.90;;;;;;5056227;28;20040;-73
2023/12/18 05:35:40;;;;;;;2.85;1.85;;;7.50;99.90;;;;;;5057799;28;20141;-73
2023/12/18 05:38:08;;;;;;;2.28;2.15;;;7.50;99.90;;;;;;5058673;28;20052;-73
2023/12/18 05:40:38;;;;;;;6.80;3.17;;;7.50;99.90;;;;;;5057455;28;20076;-73
2023/12/18 05:43:04;;;;;;;2.17;1.98;;;7.50;99.90;;;;;;5046953;28;20593;-72
2023/12/18 05:45:33;;;;;;;2.90;2.70;;;7.50;99.90;;;;;;5047102;28;20045;-72
2023/12/18 05:47:59;;;;;;;2.13;1.95;;;7.50;99.90;;;;;;5053341;28;20085;-72
2023/12/18 05:50:25;;;;;;;2.88;1.38;;;7.50;99.90;;;;;;5063252;28;20067;-72
2023/12/18 05:52:51;;;;;;;1.98;1.88;;;7.50;99.90;;;;;;5053913;28;20088;-72
2023/12/18 05:55:17;;;;;;;1.77;1.67;;;7.50;99.90;;;;;;5054376;28;20129;-73
2023/12/18 05:57:42;;;;;;;3.45;3.15;;;7.50;99.90;;;;;;5051523;28;20045;-72
2023/12/18 06:00:09;;;;;;;1.23;1.17;;;7.50;99.90;;;;;;5050802;28;20501;-72
2023/12/18 06:02:36;;;;;;;1.60;1.25;;;7.60;99.90;;;;;;5057212;28;20544;-73
2023/12/18 06:05:02;;;;;;;1.48;1.38;;;7.60;99.90;;;;;;5055334;28;20041;-72
2023/12/18 06:07:28;;;;;;;3.10;2.38;;;7.60;99.90;;;;;;5051029;28;20049;-72
2023/12/18 06:09:53;;;;;;;1.67;1.58;;;7.60;99.90;;;;;;5057192;28;20115;-72
2023/12/18 06:12:19;;;;;;;2.45;1.77;;;7.60;99.90;;;;;;5061712;28;20474;-73
2023/12/18 06:14:45;;;;;;;3.50;3.17;;;7.60;99.90;;;;;;5066693;28;20053;-73
2023/12/18 06:17:10;;;;;;;2.97;2.78;;;7.60;99.90;;;;;;5058934;28;20051;-72
2023/12/18 06:19:36;;;;;;;2.80;2.05;;;7.60;99.90;;;;;;5058136;28;20083;-72
2023/12/18 06:22:02;;;;;;;3.25;2.10;;;7.60;99.90;;;;;;5065242;28;20383;-73
2023/12/18 06:24:28;;;;;;;4.43;4.03;;;7.60;99.90;;;;;;5060544;28;20044;-72
2023/12/18 06:26:53;;;;;;;4.88;2.58;;;7.60;99.90;;;;;;5054981;28;20049;-72
2023/12/18 06:29:20;;;;;;;4.72;2.53;;;7.60;99.90;;;;;;5057039;28;20045;-72
2023/12/18 06:31:46;;;;;;;2.88;2.25;;;7.60;99.90;;;;;;5044657;28;20123;-73
2023/12/18 06:34:11;;;;;;;2.70;1.90;;;7.60;99.90;;;;;;5062748;28;20155;-72
2023/12/18 06:36:38;;;;;;;3.25;2.95;;;7.60;99.90;;;;;;5055138;28;20044;-73
2023/12/18 06:39:04;;;;;;;2.80;2.50;;;7.60;99.90;;;;;;5065965;28;20052;-72
2023/12/18 06:41:31;;;;;;;2.08;1.95;;;7.60;99.90;;;;;;5058548;28;20051;-72
2023/12/18 06:43:56;;;;;;;2.33;2.17;;;7.60;99.90;;;;;;5059513;28;20128;-72
2023/12/18 06:46:23;;;;;;;2.28;2.08;;;7.60;99.90;;;;;;5048091;28;20510;-72
2023/12/18 06:48:49;;;;;;;2.15;1.63;;;7.60;99.90;;;;;;5051265;28;20041;-72
2023/12/18 06:51:15;;;;;;;4.28;2.72;;;7.60;99.90;;;;;;5053406;28;20047;-71
2023/12/18 06:53:41;;;;;;;1.88;1.77;;;7.60;99.90;;;;;;5054054;28;20343;-72
2023/12/18 06:56:08;;;;;;;8.40;3.00;;;7.60;99.90;;;;;;5056709;28;20086;-72
2023/12/18 06:58:33;;;;;;;2.17;2.00;;;7.60;99.90;;;;;;5053360;28;20505;-72
2023/12/18 07:01:00;;;;;;;1.52;1.48;;;7.60;99.90;;;;;;5054817;28;20041;-72
2023/12/18 07:03:26;;;;;;;1.98;1.40;;;7.60;99.90;;;;;;5057728;28;20521;-72
2023/12/18 07:05:51;;;;;;;8.02;2.78;;;7.60;99.90;;;;;;5053356;28;20057;-72
2023/12/18 07:08:17;;;;;;;3.65;2.88;;;7.60;99.90;;;;;;5054672;28;20044;-72
2023/12/18 07:10:42;;;;;;;2.40;2.20;;;7.60;99.90;;;;;;5053403;28;20052;-72
2023/12/18 07:13:08;;;;;;;1.23;1.02;;;7.60;99.90;;;;;;5053925;28;20056;-72
2023/12/18 07:15:34;;;;;;;6.18;3.53;;;7.60;99.90;;;;;;5053024;28;20123;-72
2023/12/18 07:18:00;;;;;;;3.30;2.95;;;7.60;99.90;;;;;;5053180;28;20052;-72
2023/12/18 07:20:26;;;;;;;6.53;2.00;;;7.60;99.90;;;;;;5048061;28;20052;-72
2023/12/18 07:22:52;;;;;;;0.80;0.80;;;7.60;99.90;;;;;;5050627;28;20100;-72
2023/12/18 07:25:17;;;;;;;3.80;2.70;;;7.60;99.90;;;;;;5054191;28;20505;-72
2023/12/18 07:27:44;;;;;;;4.93;2.28;;;7.60;99.90;;;;;;5049708;28;20457;-72
2023/12/18 07:30:11;;;;;;;1.58;1.58;;;7.60;99.90;;;;;;5057451;28;20051;-72
2023/12/18 07:32:37;;;;;;;2.50;2.40;;;7.60;99.90;;;;;;5052969;28;20048;-72
2023/12/18 07:35:04;;;;;;;2.08;1.88;;;7.60;99.90;;;;;;5045087;28;20059;-72
2023/12/18 07:37:30;;;;;;;2.25;1.90;;;7.60;99.90;;;;;;5051818;28;20053;-72
2023/12/18 07:39:56;;;;;;;1.30;1.17;;;7.60;99.90;;;;;;5047533;28;20086;-72
2023/12/18 07:42:22;;;;;;;1.50;1.38;;;7.60;99.90;;;;;;5048982;28;20444;-72
2023/12/18 07:44:48;;;;;;;2.58;2.35;;;7.60;99.90;;;;;;5049956;28;20057;-71
2023/12/18 07:47:14;;;;;;;4.07;2.22;;;7.60;99.90;;;;;;5054206;28;20087;-72
2023/12/18 07:49:40;;;;;;;3.67;2.80;;;7.60;99.90;;;;;;5055147;28;20045;-73
2023/12/18 07:52:06;;;;;;;4.38;3.40;;;7.60;99.90;;;;;;5047590;28;20110;-72
2023/12/18 07:54:32;;;;;;;4.13;2.22;;;7.60;99.90;;;;;;5048759;28;20076;-72
2023/12/18 07:56:57;;;;;;;2.70;2.60;;;7.60;99.90;;;;;;5059266;28;20079;-72
2023/12/18 07:59:23;;;;;;;1.83;1.73;;;7.50;99.90;;;;;;5054083;28;20036;-72
2023/12/18 08:01:48;;;;;;;4.63;2.17;;;7.60;99.90;;;;;;5056116;28;20121;-72
2023/12/18 08:04:14;;;;;;;1.67;1.58;;;7.60;99.90;;;;;;5054060;28;20081;-73
2023/12/18 08:06:40;;;;;;;1.63;1.52;;;7.60;99.90;;;;;;5052563;28;20052;-72
2023/12/18 08:09:05;;;;;;;2.17;1.83;;;7.60;99.90;;;;;;5058273;28;20853;-73
2023/12/18 08:11:31;;;;;;;2.15;2.05;;;7.60;99.90;;;;;;5051855;28;20049;-73
2023/12/18 08:13:56;;;;;;;7.28;3.78;;;7.60;99.90;;;;;;5053285;28;20490;-72
2023/12/18 08:16:25;;;;;;;1.40;1.35;;;7.60;99.90;;;;;;5060008;28;20059;-72
2023/12/18 08:18:51;;;;;;;4.18;2.72;;;7.60;99.90;;;;;;5055912;28;20062;-72
2023/12/18 08:21:16;;;;;;;2.20;2.10;;;7.60;99.90;;;;;;5054119;28;20056;-72
2023/12/18 08:23:42;;;;;;;7.28;2.80;;;7.60;99.90;;;;;;5046363;28;20049;-72
2023/12/18 08:26:12;;;;;;;2.03;1.70;;;7.60;99.90;;;;;;5060485;28;20090;-72
2023/12/18 08:28:41;;;;;;;3.17;2.05;;;7.60;99.90;;;;;;5052634;28;20049;-72
2023/12/18 08:31:07;;;;;;;7.60;3.17;;;7.60;99.90;;;;;;5064680;28;20075;-72
2023/12/18 08:33:32;;;;;;;3.22;2.90;;;7.60;99.90;;;;;;5052291;28;20084;-72
2023/12/18 08:35:58;;;;;;;4.68;2.22;;;7.60;99.90;;;;;;5049877;28;20083;-72
2023/12/18 08:38:24;;;;;;;4.65;2.72;;;7.60;99.90;;;;;;5059611;28;20052;-72
2023/12/18 08:40:49;;;;;;;5.30;3.53;;;7.60;99.90;;;;;;5049682;28;20075;-72
2023/12/18 08:43:15;;;;;;;7.45;2.72;;;7.70;99.90;;;;;;5061035;28;20036;-72
2023/12/18 08:45:41;;;;;;;2.83;1.98;;;7.70;99.90;;;;;;5056972;28;20052;-73
2023/12/18 08:48:07;;;;;;;5.72;3.97;;;7.70;99.90;;;;;;5051269;28;20052;-73
2023/12/18 08:50:33;;;;;;;3.05;2.80;;;7.70;99.90;;;;;;5047686;28;20064;-72
2023/12/18 08:52:59;;;;;;;4.05;3.22;;;7.70;99.90;;;;;;5052970;28;20049;-72
2023/12/18 08:55:24;;;;;;;1.67;1.58;;;7.70;99.90;;;;;;5055059;28;20053;-72
2023/12/18 08:57:50;;;;;;;5.97;3.00;;;7.70;99.90;;;;;;5058593;28;20047;-73
2023/12/18 09:00:15;;;;;;;1.80;1.70;;;7.70;99.90;;;;;;5055278;28;20094;-73
2023/12/18 09:02:41;;;;;;;10.27;2.97;;;7.70;99.90;;;;;;5060378;28;20759;-73
2023/12/18 09:05:08;;;;;;;6.30;3.40;;;7.70;99.90;;;;;;5056328;28;20087;-73
2023/12/18 09:07:33;;;;;;;2.60;2.38;;;7.70;99.90;;;;;;5053641;28;20045;-72
2023/12/18 09:09:59;;;;;;;3.50;2.72;;;7.70;99.90;;;;;;5051579;28;20592;-72
2023/12/18 09:12:24;;;;;;;4.03;3.58;;;7.70;99.90;;;;;;5052203;28;20044;-72
2023/12/18 09:14:50;;;;;;;3.55;3.22;;;7.70;99.90;;;;;;5051901;28;20086;-72
2023/12/18 09:17:16;;;;;;;3.47;3.25;;;7.80;99.90;;;;;;5059725;28;20044;-72
2023/12/18 09:19:41;;;;;;;2.40;2.20;;;7.80;99.90;;;;;;5049414;28;20049;-73
2023/12/18 09:22:07;;;;;;;2.50;2.35;;;7.70;99.90;;;;;;5035223;28;20048;-72
2023/12/18 09:24:32;;;;;;;5.18;3.03;;;7.80;99.90;;;;;;5061505;28;20049;-72
2023/12/18 09:26:58;;;;;;;2.42;2.22;;;7.80;99.90;;;;;;5060650;28;20059;-73
2023/12/18 09:29:24;;;;;;;3.47;2.67;;;7.80;99.90;;;;;;5055857;28;20515;-72
2023/12/18 09:31:50;;;;;;;3.20;2.55;;;7.80;99.90;;;;;;5060711;28;20055;-72
2023/12/18 09:34:16;;;;;;;2.50;2.30;;;7.80;99.90;;;;;;5056317;28;20075;-73
2023/12/18 09:36:41;;;;;;;3.20;2.95;;;7.80;99.90;;;;;;5054462;28;20059;-73
2023/12/18 09:39:07;;;;;;;2.28;2.15;;;7.80;99.90;;;;;;5051774;28;20041;-72
2023/12/18 09:41:33;;;;;;;3.75;3.45;;;7.80;99.90;;;;;;5048327;28;20056;-72
2023/12/18 09:43:58;;;;;;;5.60;4.22;;;7.80;99.90;;;;;;5056069;28;20695;-72
2023/12/18 09:46:25;;;;;;;2.70;1.75;;;7.80;99.90;;;;;;5047726;28;20049;-73
2023/12/18 09:48:52;;;;;;;3.22;2.85;;;7.80;99.90;;;;;;5049978;28;20484;-72
2023/12/18 09:51:21;;;;;;;3.90;3.08;;;7.80;99.90;;;;;;5058248;28;20070;-72
2023/12/18 09:53:47;;;;;;;5.43;3.33;;;7.90;99.90;;;;;;5058445;28;20053;-72
2023/12/18 09:56:13;;;;;;;5.55;2.92;;;7.80;99.90;;;;;;5055926;28;20041;-72
2023/12/18 09:58:40;;;;;;;6.82;3.53;;;7.90;99.90;;;;;;5055298;28;20102;-72
2023/12/18 10:01:07;;;;;;;3.85;2.78;;;7.90;99.90;;;;;;5059384;28;20051;-72
2023/12/18 10:03:33;;;;;;;4.93;3.30;;;7.90;99.90;;;;;;5054115;28;20059;-73
2023/12/18 10:05:59;;;;;;;3.15;2.28;;;7.80;99.90;;;;;;5064059;28;20109;-73
2023/12/18 10:08:24;;;;;;;4.60;3.35;;;7.90;99.90;;;;;;5053320;28;20901;-72
2023/12/18 10:10:50;;;;;;;3.80;2.75;;;7.90;99.90;;;;;;5066519;28;20495;-72
2023/12/18 10:13:16;;;;;;;6.22;2.63;;;7.90;99.90;;;;;;5054334;28;20161;-72
2023/12/18 10:15:42;;;;;;;7.63;3.72;;;8.00;99.90;;;;;;5048617;28;20476;-71
2023/12/18 10:18:09;;;;;;;6.05;3.45;;;8.00;99.90;;;;;;5054884;28;20048;-71
2023/12/18 10:20:36;;;;;;;2.78;2.53;;;8.00;99.90;;;;;;5053716;28;20041;-71
2023/12/18 10:23:07;;;;;;;4.13;3.70;;;8.00;99.90;;;;;;5045811;28;20095;-71
2023/12/18 10:25:35;;;;;;;2.72;2.53;;;8.00;99.90;;;;;;5053489;28;20157;-73
2023/12/18 10:28:00;;;;;;;3.88;2.78;;;8.00;99.90;;;;;;5056098;28;20081;-72
2023/12/18 10:30:28;;;;;;;7.97;3.20;;;8.10;99.90;;;;;;5047421;28;20536;-74
2023/12/18 10:32:54;;;;;;;6.68;3.35;;;8.10;99.90;;;;;;5047394;28;20665;-71
2023/12/18 10:35:22;;;;;;;4.18;2.47;;;8.10;99.90;;;;;;5049678;28;20356;-70
2023/12/18 10:37:52;;;;;;;7.93;2.50;;;8.10;99.90;;;;;;5050688;28;20180;-71
2023/12/18 10:40:19;;;;;;;4.57;3.35;;;8.10;99.90;;;;;;5052889;28;20130;-73
2023/12/18 10:43:06;;;;;;;3.47;2.42;;;8.10;99.90;;;;;;5051220;28;20055;-73
2023/12/18 10:45:33;;;;;;;5.00;2.70;;;8.10;99.90;;;;;;5051901;28;20123;-71
2023/12/18 10:47:59;;;;;;;2.63;2.43;;;8.10;99.90;;;;;;5059050;28;20079;-71
2023/12/18 10:50:28;;;;;;;7.22;3.38;;;8.20;99.90;;;;;;5057241;28;20535;-74
2023/12/18 10:52:55;;;;;;;4.18;3.78;;;8.20;99.90;;;;;;5051622;28;20100;-71
2023/12/18 10:55:23;;;;;;;2.28;2.10;;;8.20;99.90;;;;;;5060806;28;20845;-71
2023/12/18 10:57:50;;;;;;;3.45;3.00;;;8.20;99.90;;;;;;5055591;28;20056;-73
2023/12/18 11:00:17;;;;;;;4.28;3.35;;;8.20;99.90;;;;;;5045293;28;20059;-73
2023/12/18 11:02:44;;;;;;;4.93;3.30;;;8.20;99.90;;;;;;5048764;28;20052;-71
2023/12/18 11:05:12;;;;;;;4.32;3.92;;;8.20;99.90;;;;;;5051134;28;20053;-71
2023/12/18 11:07:40;;;;;;;8.27;4.07;;;8.20;99.90;;;;;;5050984;28;20071;-71
2023/12/18 11:10:07;;;;;;;6.32;3.15;;;8.30;99.90;;;;;;5059063;28;20052;-71
2023/12/18 11:12:34;;;;;;;2.42;1.55;;;8.20;99.90;;;;;;5034342;28;20053;-71
2023/12/18 11:15:22;;;;;;;3.35;2.80;;;8.30;99.90;;;;;;5043124;28;20049;-73
2023/12/18 11:18:10;;;;;;;4.10;3.70;;;8.30;99.90;;;;;;5049962;28;20044;-71
2023/12/18 11:20:37;;;;;;;;;;;8.30;99.90;;;;;;5059177;28;20132;-71
2023/12/18 11:23:03;;;;;;;2.40;2.20;;;8.30;99.90;;;;;;5053057;28;19964;-71
2023/12/18 11:25:36;;;;;;;2.63;2.03;;;8.30;99.90;;;;;;5059052;28;20165;-72
2023/12/18 11:28:04;;;;;;;5.22;4.63;;;8.30;99.90;;;;;;5045501;28;20095;-72
2023/12/18 11:30:40;;;;;;;9.82;5.10;;;8.30;99.90;;;;;;5054136;28;20063;-72
2023/12/18 11:33:09;;;;;;;7.47;3.05;;;8.30;99.90;;;;;;5056604;28;20585;-72
2023/12/18 11:35:35;;;;;;;3.55;3.22;;;8.30;99.90;;;;;;5056227;28;20045;-72
2023/12/18 11:38:08;;;;;;;7.10;3.92;;;8.40;99.90;;;;;;5053611;28;20056;-72
2023/12/18 11:40:41;;;;;;;5.75;4.40;;;8.30;99.90;;;;;;5063390;28;20044;-71
2023/12/18 11:43:08;;;;;;;6.90;4.43;;;8.40;99.90;;;;;;5056522;28;20060;-73
2023/12/18 11:45:39;;;;;;;7.00;3.10;;;8.40;99.90;;;;;;5055551;28;20744;-73
2023/12/18 11:48:06;;;;;;;9.98;4.90;;;8.40;99.90;;;;;;5058439;28;20052;-75
2023/12/18 11:50:35;;;;;;;4.32;3.90;;;8.40;99.90;;;;;;5055101;28;20033;-73
2023/12/18 11:53:01;;;;;;;6.22;4.88;;;8.40;99.90;;;;;;5054767;28;20458;-73
2023/12/18 11:55:44;;;;;;;6.13;4.28;;;8.50;99.90;;;;;;5060849;28;20044;-73
2023/12/18 11:58:10;;;;;;;5.57;3.72;;;8.50;99.90;;;;;;5057142;28;20588;-73
2023/12/18 12:00:38;;;;;;;2.08;1.88;;;8.50;99.90;;;;;;5061308;28;20076;-74
2023/12/18 12:03:04;;;;;;;5.68;2.70;;;8.50;99.90;;;;;;5069179;28;20588;-74
2023/12/18 12:05:32;;;;;;;5.80;2.63;;;8.50;99.90;;;;;;5060085;28;20084;-74
2023/12/18 12:08:02;;;;;;;3.17;2.63;;;8.50;99.90;;;;;;5061114;28;20551;-74
2023/12/18 12:10:27;;;;;;;5.82;4.53;;;8.50;99.90;;;;;;5062041;28;20045;-74
2023/12/18 12:12:54;;;;;;;4.57;2.13;;;8.50;99.90;;;;;;5048999;28;20049;-74
2023/12/18 12:15:24;;;;;;;4.75;3.47;;;8.50;99.90;;;;;;5056384;28;20047;-74
2023/12/18 12:18:05;;;;;;;2.53;2.28;;;8.50;99.90;;;;;;5056441;28;20076;-74
2023/12/18 12:20:32;;;;;;;5.80;3.72;;;8.50;99.90;;;;;;5041013;28;20048;-77
2023/12/18 12:22:58;;;;;;;3.20;2.97;;;8.60;99.90;;;;;;5053322;28;20037;-74
2023/12/18 12:25:23;;;;;;;3.17;2.95;;;8.60;99.90;;;;;;5058637;28;20044;-74
2023/12/18 12:27:50;;;;;;;3.45;3.03;;;8.50;99.90;;;;;;5059359;28;20442;-74
2023/12/18 12:30:17;;;;;;;2.60;2.38;;;8.60;99.90;;;;;;5058443;28;20045;-74
2023/12/18 12:32:44;;;;;;;3.33;3.05;;;8.60;99.90;;;;;;5056805;28;20124;-74
2023/12/18 12:35:11;;;;;;;2.72;2.10;;;8.60;99.90;;;;;;5050655;28;20041;-74
2023/12/18 12:37:37;;;;;;;5.63;2.85;;;8.60;99.90;;;;;;5052696;28;20600;-75
2023/12/18 12:40:05;;;;;;;1.90;1.80;;;8.60;99.90;;;;;;5053330;28;20076;-74
2023/12/18 12:42:32;;;;;;;7.32;3.72;;;8.60;99.90;;;;;;5051872;28;20110;-74
2023/12/18 12:44:58;;;;;;;5.47;3.45;;;8.60;99.90;;;;;;5058978;28;20051;-73
2023/12/18 12:47:27;;;;;;;3.10;2.90;;;8.70;99.90;;;;;;5053459;28;20039;-74
2023/12/18 12:49:53;;;;;;;3.17;2.88;;;8.70;99.90;;;;;;5054661;28;20063;-73
2023/12/18 12:52:19;;;;;;;4.45;3.85;;;8.60;99.90;;;;;;5047124;28;20041;-74
2023/12/18 12:54:48;;;;;;;1.70;1.63;;;8.60;99.90;;;;;;5060305;28;20144;-74